createdAt,value
2019-05-29T00:00:44.483Z,988.46
2019-05-29T00:01:44.469Z,988.47
2019-05-29T00:02:44.465Z,988.45
2019-05-29T00:03:44.466Z,988.48
2019-05-29T00:04:44.459Z,988.45
2019-05-29T00:05:44.458Z,988.45
2019-05-29T00:06:44.466Z,988.46
2019-05-29T00:07:44.458Z,988.47
2019-05-29T00:08:44.442Z,988.42
2019-05-29T00:09:44.439Z,988.49
2019-05-29T00:10:44.437Z,988.47
2019-05-29T00:11:44.434Z,988.48
2019-05-29T00:12:44.430Z,988.48
2019-05-29T00:13:44.426Z,988.47
2019-05-29T00:14:44.421Z,988.49
2019-05-29T00:15:44.423Z,988.48
2019-05-29T00:16:44.418Z,988.53
2019-05-29T00:17:44.412Z,988.52
2019-05-29T00:18:44.405Z,988.56
2019-05-29T00:19:44.414Z,988.57
2019-05-29T00:20:44.406Z,988.64
2019-05-29T00:21:44.400Z,988.61
2019-05-29T00:22:44.396Z,988.63
2019-05-29T00:23:44.392Z,988.64
2019-05-29T00:24:44.390Z,988.66
2019-05-29T00:25:44.389Z,988.68
2019-05-29T00:26:44.383Z,988.67
2019-05-29T00:27:44.380Z,988.7
2019-05-29T00:28:44.375Z,988.7
2019-05-29T00:29:44.979Z,988.73
2019-05-29T00:30:44.371Z,988.7
2019-05-29T00:31:44.367Z,988.72
2019-05-29T00:32:44.365Z,988.72
2019-05-29T00:33:44.359Z,988.72
2019-05-29T00:34:44.354Z,988.73
2019-05-29T00:35:44.384Z,988.72
2019-05-29T00:36:44.349Z,988.74
2019-05-29T00:37:44.350Z,988.74
2019-05-29T00:38:44.342Z,988.76
2019-05-29T00:39:44.341Z,988.77
2019-05-29T00:40:46.739Z,988.81
2019-05-29T00:41:44.338Z,988.8
2019-05-29T00:42:44.338Z,988.81
2019-05-29T00:43:44.332Z,988.82
2019-05-29T00:44:44.324Z,988.83
2019-05-29T00:45:44.323Z,988.84
2019-05-29T00:46:44.317Z,988.81
2019-05-29T00:47:44.314Z,988.87
2019-05-29T00:48:44.311Z,988.84
2019-05-29T00:49:44.312Z,988.86
2019-05-29T00:50:44.307Z,988.89
2019-05-29T00:51:44.307Z,988.9
2019-05-29T00:52:44.309Z,988.87
2019-05-29T00:53:44.309Z,988.91
2019-05-29T00:54:44.295Z,988.88
2019-05-29T00:55:44.294Z,988.88
2019-05-29T00:56:44.297Z,988.87
2019-05-29T00:57:44.283Z,988.91
2019-05-29T00:58:44.277Z,988.88
2019-05-29T00:59:44.276Z,988.94
2019-05-29T01:00:44.274Z,988.9
2019-05-29T01:01:44.278Z,988.94
2019-05-29T01:02:44.284Z,988.97
2019-05-29T01:03:44.266Z,988.99
2019-05-29T01:04:44.277Z,988.97
2019-05-29T01:05:44.263Z,988.98
2019-05-29T01:06:44.264Z,989.01
2019-05-29T01:07:44.260Z,989.03
2019-05-29T01:08:44.265Z,989.02
2019-05-29T01:09:44.249Z,989.02
2019-05-29T01:10:44.246Z,989.03
2019-05-29T01:11:44.242Z,989.05
2019-05-29T01:12:44.849Z,989.02
2019-05-29T01:13:44.229Z,989.04
2019-05-29T01:14:49.876Z,989.03
2019-05-29T01:15:44.225Z,989.09
2019-05-29T01:16:44.229Z,989.08
2019-05-29T01:17:44.223Z,989.08
2019-05-29T01:18:44.223Z,989.11
2019-05-29T01:19:44.217Z,989.13
2019-05-29T01:20:44.218Z,989.12
2019-05-29T01:21:44.209Z,989.14
2019-05-29T01:22:44.216Z,989.12
2019-05-29T01:23:47.234Z,989.14
2019-05-29T01:24:44.196Z,989.11
2019-05-29T01:25:44.195Z,989.16
2019-05-29T01:26:44.188Z,989.19
2019-05-29T01:27:44.187Z,989.23
2019-05-29T01:28:44.182Z,989.25
2019-05-29T01:29:44.190Z,989.29
2019-05-29T01:30:44.177Z,989.28
2019-05-29T01:31:44.181Z,989.31
2019-05-29T01:32:44.169Z,989.3
2019-05-29T01:33:44.170Z,989.34
2019-05-29T01:34:44.177Z,989.34
2019-05-29T01:35:44.170Z,989.35
2019-05-29T01:36:44.154Z,989.33
2019-05-29T01:37:44.150Z,989.37
2019-05-29T01:38:44.145Z,989.39
2019-05-29T01:39:44.147Z,989.39
2019-05-29T01:40:44.145Z,989.43
2019-05-29T01:41:44.146Z,989.4
2019-05-29T01:42:44.132Z,989.46
2019-05-29T01:43:44.129Z,989.43
2019-05-29T01:44:44.126Z,989.39
2019-05-29T01:45:44.123Z,989.41
2019-05-29T01:46:44.121Z,989.38
2019-05-29T01:47:44.132Z,989.37
2019-05-29T01:48:44.111Z,989.38
2019-05-29T01:49:44.110Z,989.38
2019-05-29T01:50:44.109Z,989.38
2019-05-29T01:51:44.102Z,989.33
2019-05-29T01:52:44.100Z,989.38
2019-05-29T01:53:44.094Z,989.4
2019-05-29T01:54:44.096Z,989.4
2019-05-29T01:55:44.696Z,989.37
2019-05-29T01:56:44.086Z,989.43
2019-05-29T01:57:44.081Z,989.41
2019-05-29T01:58:44.081Z,989.45
2019-05-29T01:59:44.084Z,989.44
2019-05-29T02:00:44.073Z,989.48
2019-05-29T02:01:44.075Z,989.45
2019-05-29T02:02:44.066Z,989.51
2019-05-29T02:03:44.062Z,989.51
2019-05-29T02:04:44.058Z,989.5
2019-05-29T02:05:44.061Z,989.5
2019-05-29T02:06:46.454Z,989.51
2019-05-29T02:07:44.048Z,989.51
2019-05-29T02:08:44.041Z,989.49
2019-05-29T02:09:44.039Z,989.5
2019-05-29T02:10:44.036Z,989.5
2019-05-29T02:11:44.031Z,989.54
2019-05-29T02:12:44.028Z,989.54
2019-05-29T02:13:44.025Z,989.6
2019-05-29T02:14:44.024Z,989.59
2019-05-29T02:15:44.015Z,989.61
2019-05-29T02:16:44.012Z,989.61
2019-05-29T02:17:44.008Z,989.62
2019-05-29T02:18:44.008Z,989.62
2019-05-29T02:19:44.002Z,989.64
2019-05-29T02:20:43.998Z,989.66
2019-05-29T02:21:43.995Z,989.65
2019-05-29T02:22:43.991Z,989.68
2019-05-29T02:23:43.988Z,989.67
2019-05-29T02:24:43.985Z,989.68
2019-05-29T02:25:43.984Z,989.71
2019-05-29T02:26:43.975Z,989.69
2019-05-29T02:27:43.974Z,989.69
2019-05-29T02:28:43.972Z,989.7
2019-05-29T02:29:43.966Z,989.72
2019-05-29T02:30:43.965Z,989.67
2019-05-29T02:31:43.960Z,989.69
2019-05-29T02:32:43.956Z,989.67
2019-05-29T02:33:43.975Z,989.71
2019-05-29T02:34:43.958Z,989.68
2019-05-29T02:35:43.947Z,989.69
2019-05-29T02:36:43.946Z,989.73
2019-05-29T02:37:43.938Z,989.72
2019-05-29T02:38:44.540Z,989.75
2019-05-29T02:39:43.938Z,989.74
2019-05-29T02:40:43.929Z,989.76
2019-05-29T02:41:43.925Z,989.79
2019-05-29T02:42:43.920Z,989.78
2019-05-29T02:43:43.916Z,989.77
2019-05-29T02:44:43.912Z,989.8
2019-05-29T02:45:53.408Z,989.79
2019-05-29T02:46:43.907Z,989.79
2019-05-29T02:47:43.904Z,989.83
2019-05-29T02:48:43.905Z,989.85
2019-05-29T02:49:46.926Z,989.83
2019-05-29T02:50:43.893Z,989.85
2019-05-29T02:51:43.885Z,989.87
2019-05-29T02:52:43.879Z,989.89
2019-05-29T02:53:43.879Z,989.91
2019-05-29T02:54:43.873Z,989.85
2019-05-29T02:55:43.872Z,989.86
2019-05-29T02:56:43.868Z,989.86
2019-05-29T02:57:43.862Z,989.88
2019-05-29T02:58:43.860Z,989.9
2019-05-29T02:59:43.857Z,989.9
2019-05-29T03:00:43.854Z,989.9
2019-05-29T03:01:43.855Z,989.93
2019-05-29T03:02:43.861Z,989.93
2019-05-29T03:03:43.840Z,989.92
2019-05-29T03:04:43.836Z,989.96
2019-05-29T03:05:43.835Z,990.01
2019-05-29T03:06:43.830Z,990.01
2019-05-29T03:07:43.824Z,990.07
2019-05-29T03:08:43.832Z,990.01
2019-05-29T03:09:43.820Z,990.05
2019-05-29T03:10:43.815Z,990.05
2019-05-29T03:11:43.830Z,990.07
2019-05-29T03:12:43.804Z,990.05
2019-05-29T03:13:43.806Z,990.06
2019-05-29T03:14:43.799Z,990.13
2019-05-29T03:15:43.797Z,990.14
2019-05-29T03:16:43.791Z,990.14
2019-05-29T03:17:43.788Z,990.17
2019-05-29T03:18:43.802Z,990.21
2019-05-29T03:19:43.780Z,990.21
2019-05-29T03:20:43.776Z,990.25
2019-05-29T03:21:44.379Z,990.25
2019-05-29T03:22:43.770Z,990.26
2019-05-29T03:23:43.766Z,990.31
2019-05-29T03:24:43.769Z,990.3
2019-05-29T03:25:43.758Z,990.36
2019-05-29T03:26:43.758Z,990.36
2019-05-29T03:27:43.753Z,990.34
2019-05-29T03:28:43.748Z,990.35
2019-05-29T03:29:43.744Z,990.41
2019-05-29T03:30:46.029Z,990.4
2019-05-29T03:31:47.478Z,990.46
2019-05-29T03:32:48.530Z,990.48
2019-05-29T03:33:48.552Z,990.46
2019-05-29T03:34:46.685Z,990.47
2019-05-29T03:35:47.808Z,990.47
2019-05-29T03:36:47.966Z,990.52
2019-05-29T03:37:43.721Z,990.52
2019-05-29T03:38:43.713Z,990.59
2019-05-29T03:39:43.711Z,990.6
2019-05-29T03:40:43.712Z,990.63
2019-05-29T03:41:43.703Z,990.59
2019-05-29T03:42:43.695Z,990.62
2019-05-29T03:43:43.691Z,990.65
2019-05-29T03:44:43.689Z,990.68
2019-05-29T03:45:43.683Z,990.68
2019-05-29T03:46:45.862Z,990.7
2019-05-29T03:47:43.678Z,990.69
2019-05-29T03:48:43.678Z,990.7
2019-05-29T03:49:43.671Z,990.74
2019-05-29T03:50:43.678Z,990.76
2019-05-29T03:51:43.670Z,990.76
2019-05-29T03:52:43.670Z,990.78
2019-05-29T03:53:43.669Z,990.8
2019-05-29T03:54:43.678Z,990.79
2019-05-29T03:55:43.663Z,990.83
2019-05-29T03:56:43.658Z,990.87
2019-05-29T03:57:43.643Z,990.87
2019-05-29T03:58:43.642Z,990.87
2019-05-29T03:59:43.634Z,990.92
2019-05-29T04:00:46.256Z,990.94
2019-05-29T04:01:43.624Z,990.93
2019-05-29T04:02:43.628Z,990.99
2019-05-29T04:03:43.627Z,990.99
2019-05-29T04:04:44.249Z,990.98
2019-05-29T04:05:43.611Z,991
2019-05-29T04:06:47.204Z,991.03
2019-05-29T04:07:43.611Z,991.01
2019-05-29T04:08:43.620Z,991.08
2019-05-29T04:09:43.598Z,991.08
2019-05-29T04:10:43.596Z,991.11
2019-05-29T04:11:43.589Z,991.15
2019-05-29T04:12:43.587Z,991.16
2019-05-29T04:13:43.604Z,991.13
2019-05-29T04:14:43.605Z,991.12
2019-05-29T04:15:46.611Z,991.18
2019-05-29T04:16:58.856Z,991.17
2019-05-29T04:17:43.570Z,991.19
2019-05-29T04:18:43.568Z,991.18
2019-05-29T04:19:43.561Z,991.17
2019-05-29T04:20:43.558Z,991.24
2019-05-29T04:21:43.556Z,991.19
2019-05-29T04:22:43.561Z,991.23
2019-05-29T04:23:43.556Z,991.24
2019-05-29T04:24:43.544Z,991.24
2019-05-29T04:25:43.543Z,991.26
2019-05-29T04:26:43.539Z,991.27
2019-05-29T04:27:43.592Z,991.29
2019-05-29T04:28:43.538Z,991.33
2019-05-29T04:29:43.555Z,991.36
2019-05-29T04:30:43.529Z,991.36
2019-05-29T04:31:43.526Z,991.34
2019-05-29T04:32:43.517Z,991.35
2019-05-29T04:33:43.513Z,991.32
2019-05-29T04:34:43.513Z,991.38
2019-05-29T04:35:43.509Z,991.37
2019-05-29T04:36:43.519Z,991.39
2019-05-29T04:37:43.506Z,991.37
2019-05-29T04:38:43.509Z,991.43
2019-05-29T04:39:43.508Z,991.44
2019-05-29T04:40:43.503Z,991.43
2019-05-29T04:41:43.488Z,991.43
2019-05-29T04:42:43.537Z,991.44
2019-05-29T04:43:43.488Z,991.43
2019-05-29T04:44:43.498Z,991.52
2019-05-29T04:45:43.491Z,991.48
2019-05-29T04:46:43.486Z,991.48
2019-05-29T04:47:44.270Z,991.47
2019-05-29T04:48:43.465Z,991.56
2019-05-29T04:49:43.459Z,991.59
2019-05-29T04:50:43.461Z,991.58
2019-05-29T04:51:43.456Z,991.57
2019-05-29T04:52:43.456Z,991.63
2019-05-29T04:53:43.459Z,991.61
2019-05-29T04:54:43.462Z,991.6
2019-05-29T04:55:43.484Z,991.66
2019-05-29T04:56:43.436Z,991.67
2019-05-29T04:57:43.435Z,991.69
2019-05-29T04:58:46.464Z,991.72
2019-05-29T04:59:43.427Z,991.67
2019-05-29T05:00:58.031Z,991.72
2019-05-29T05:01:43.419Z,991.71
2019-05-29T05:02:43.416Z,991.75
2019-05-29T05:03:43.414Z,991.75
2019-05-29T05:04:43.414Z,991.8
2019-05-29T05:05:43.410Z,991.82
2019-05-29T05:06:43.405Z,991.75
2019-05-29T05:07:43.405Z,991.8
2019-05-29T05:08:43.399Z,991.82
2019-05-29T05:09:43.399Z,991.8
2019-05-29T05:10:43.392Z,991.91
2019-05-29T05:11:43.389Z,991.89
2019-05-29T05:12:43.422Z,991.87
2019-05-29T05:13:43.383Z,991.92
2019-05-29T05:14:43.379Z,991.92
2019-05-29T05:15:43.382Z,991.95
2019-05-29T05:16:43.377Z,991.92
2019-05-29T05:17:43.377Z,991.9
2019-05-29T05:18:43.373Z,991.97
2019-05-29T05:19:43.363Z,991.97
2019-05-29T05:20:43.371Z,991.96
2019-05-29T05:21:43.355Z,991.99
2019-05-29T05:22:43.352Z,991.96
2019-05-29T05:23:43.358Z,991.96
2019-05-29T05:24:44.111Z,991.96
2019-05-29T05:25:43.344Z,992.02
2019-05-29T05:26:43.342Z,992.04
2019-05-29T05:27:43.337Z,992.04
2019-05-29T05:28:45.756Z,992.03
2019-05-29T05:29:43.329Z,992.03
2019-05-29T05:30:43.935Z,992.04
2019-05-29T05:31:43.327Z,992.07
2019-05-29T05:32:43.332Z,992.05
2019-05-29T05:33:43.325Z,992.06
2019-05-29T05:34:43.322Z,992.04
2019-05-29T05:35:43.321Z,992.03
2019-05-29T05:36:43.316Z,992.07
2019-05-29T05:37:43.308Z,992.08
2019-05-29T05:38:43.301Z,992.06
2019-05-29T05:39:43.303Z,992.09
2019-05-29T05:40:43.400Z,992.08
2019-05-29T05:41:46.328Z,992.11
2019-05-29T05:42:43.303Z,992.08
2019-05-29T05:43:43.291Z,992.09
2019-05-29T05:44:43.287Z,992.12
2019-05-29T05:45:43.281Z,992.13
2019-05-29T05:46:43.279Z,992.11
2019-05-29T05:47:53.398Z,992.14
2019-05-29T05:48:43.273Z,992.13
2019-05-29T05:49:43.271Z,992.19
2019-05-29T05:50:43.270Z,992.18
2019-05-29T05:51:44.741Z,992.18
2019-05-29T05:52:43.263Z,992.24
2019-05-29T05:53:43.258Z,992.25
2019-05-29T05:54:43.257Z,992.29
2019-05-29T05:55:43.254Z,992.26
2019-05-29T05:56:43.249Z,992.29
2019-05-29T05:57:43.258Z,992.34
2019-05-29T05:58:43.242Z,992.32
2019-05-29T05:59:43.242Z,992.36
2019-05-29T06:00:43.239Z,992.34
2019-05-29T06:01:43.233Z,992.37
2019-05-29T06:02:43.240Z,992.4
2019-05-29T06:03:43.228Z,992.41
2019-05-29T06:04:43.227Z,992.44
2019-05-29T06:05:43.220Z,992.45
2019-05-29T06:06:43.220Z,992.41
2019-05-29T06:07:43.215Z,992.45
2019-05-29T06:08:43.227Z,992.45
2019-05-29T06:09:43.253Z,992.52
2019-05-29T06:10:43.212Z,992.52
2019-05-29T06:11:43.204Z,992.51
2019-05-29T06:12:43.200Z,992.54
2019-05-29T06:13:44.047Z,992.54
2019-05-29T06:14:43.196Z,992.52
2019-05-29T06:15:43.194Z,992.5
2019-05-29T06:16:43.186Z,992.54
2019-05-29T06:17:57.273Z,992.53
2019-05-29T06:18:43.302Z,992.52
2019-05-29T06:19:43.251Z,992.53
2019-05-29T06:20:43.324Z,992.54
2019-05-29T06:21:43.181Z,992.53
2019-05-29T06:22:43.591Z,992.57
2019-05-29T06:23:43.630Z,992.57
2019-05-29T06:24:46.205Z,992.58
2019-05-29T06:25:43.837Z,992.6
2019-05-29T06:26:43.168Z,992.62
2019-05-29T06:27:43.389Z,992.62
2019-05-29T06:28:43.492Z,992.68
2019-05-29T06:29:43.542Z,992.66
2019-05-29T06:30:44.892Z,992.67
2019-05-29T06:31:43.464Z,992.67
2019-05-29T06:32:43.592Z,992.68
2019-05-29T06:33:43.851Z,992.68
2019-05-29T06:34:43.788Z,992.7
2019-05-29T06:35:43.748Z,992.69
2019-05-29T06:36:43.895Z,992.73
2019-05-29T06:37:43.741Z,992.76
2019-05-29T06:38:44.220Z,992.77
2019-05-29T06:39:43.884Z,992.77
2019-05-29T06:40:44.001Z,992.82
2019-05-29T06:41:44.304Z,992.77
2019-05-29T06:42:43.915Z,992.8
2019-05-29T06:43:44.277Z,992.8
2019-05-29T06:44:44.790Z,992.87
2019-05-29T06:45:44.094Z,992.91
2019-05-29T06:46:45.127Z,992.89
2019-05-29T06:47:44.467Z,992.86
2019-05-29T06:48:56.118Z,992.86
2019-05-29T06:49:44.180Z,992.84
2019-05-29T06:50:43.457Z,992.83
2019-05-29T06:51:43.399Z,992.91
2019-05-29T06:52:43.584Z,992.91
2019-05-29T06:53:43.859Z,992.92
2019-05-29T06:54:44.089Z,992.92
2019-05-29T06:55:44.003Z,992.92
2019-05-29T06:56:43.831Z,992.95
2019-05-29T06:57:44.390Z,992.99
2019-05-29T06:58:44.294Z,993.01
2019-05-29T06:59:44.585Z,993.02
2019-05-29T07:00:43.061Z,993
2019-05-29T07:01:43.475Z,992.98
2019-05-29T07:02:43.053Z,993
2019-05-29T07:03:43.916Z,993.02
2019-05-29T07:04:43.055Z,993.08
2019-05-29T07:05:46.269Z,993.11
2019-05-29T07:06:43.057Z,993.12
2019-05-29T07:07:46.535Z,993.15
2019-05-29T07:08:46.282Z,993.12
2019-05-29T07:09:43.114Z,993.17
2019-05-29T07:10:44.468Z,993.13
2019-05-29T07:11:43.452Z,993.15
2019-05-29T07:12:44.362Z,993.2
2019-05-29T07:13:45.716Z,993.15
2019-05-29T07:14:43.050Z,993.21
2019-05-29T07:15:43.131Z,993.19
2019-05-29T07:16:49.453Z,993.23
2019-05-29T07:17:43.020Z,993.27
2019-05-29T07:19:18.080Z,993.23
2019-05-29T07:20:07.872Z,993.27
2019-05-29T07:21:07.871Z,993.28
2019-05-29T07:22:07.883Z,993.28
2019-05-29T07:23:14.138Z,993.29
2019-05-29T07:24:07.867Z,993.3
2019-05-29T07:25:07.864Z,993.31
2019-05-29T07:26:07.865Z,993.36
2019-05-29T07:27:12.655Z,993.38
2019-05-29T07:28:07.851Z,993.37
2019-05-29T07:29:08.662Z,993.36
2019-05-29T07:30:07.848Z,993.4
2019-05-29T07:31:07.845Z,993.4
2019-05-29T07:32:07.844Z,993.38
2019-05-29T07:33:07.850Z,993.38
2019-05-29T07:34:07.869Z,993.35
2019-05-29T07:35:07.836Z,993.35
2019-05-29T07:36:07.836Z,993.36
2019-05-29T07:37:07.837Z,993.39
2019-05-29T07:38:07.832Z,993.4
2019-05-29T07:39:07.827Z,993.38
2019-05-29T07:40:07.824Z,993.43
2019-05-29T07:41:07.831Z,993.41
2019-05-29T07:42:07.823Z,993.42
2019-05-29T07:43:07.829Z,993.46
2019-05-29T07:44:08.019Z,993.48
2019-05-29T07:45:07.822Z,993.5
2019-05-29T07:46:07.815Z,993.53
2019-05-29T07:47:09.880Z,993.53
2019-05-29T07:48:07.807Z,993.53
2019-05-29T07:49:07.807Z,993.51
2019-05-29T07:50:07.808Z,993.54
2019-05-29T07:51:07.802Z,993.62
2019-05-29T07:52:07.797Z,993.58
2019-05-29T07:53:07.801Z,993.59
2019-05-29T07:54:07.885Z,993.59
2019-05-29T07:55:10.875Z,993.6
2019-05-29T07:56:21.538Z,993.59
2019-05-29T07:57:07.788Z,993.65
2019-05-29T07:58:07.786Z,993.67
2019-05-29T07:59:07.788Z,993.65
2019-05-29T08:00:07.793Z,993.66
2019-05-29T08:01:13.050Z,993.66
2019-05-29T08:02:07.780Z,993.7
2019-05-29T08:03:07.778Z,993.71
2019-05-29T08:04:07.778Z,993.76
2019-05-29T08:05:07.774Z,993.76
2019-05-29T08:06:14.125Z,993.8
2019-05-29T08:07:07.776Z,993.82
2019-05-29T08:08:07.770Z,993.83
2019-05-29T08:09:07.769Z,993.82
2019-05-29T08:10:07.764Z,993.84
2019-05-29T08:11:07.804Z,993.89
2019-05-29T08:12:07.761Z,993.92
2019-05-29T08:13:07.762Z,993.9
2019-05-29T08:14:07.761Z,993.98
2019-05-29T08:15:07.759Z,993.97
2019-05-29T08:16:07.761Z,993.97
2019-05-29T08:17:07.757Z,993.96
2019-05-29T08:18:07.759Z,993.94
2019-05-29T08:19:08.155Z,993.98
2019-05-29T08:20:08.124Z,993.95
2019-05-29T08:21:07.756Z,993.91
2019-05-29T08:22:07.754Z,993.93
2019-05-29T08:23:07.762Z,993.94
2019-05-29T08:24:07.755Z,993.94
2019-05-29T08:25:07.754Z,993.96
2019-05-29T08:26:07.763Z,993.97
2019-05-29T08:27:07.755Z,993.93
2019-05-29T08:28:07.753Z,993.96
2019-05-29T08:29:07.753Z,993.97
2019-05-29T08:30:07.752Z,993.96
2019-05-29T08:31:07.753Z,993.98
2019-05-29T08:32:07.754Z,993.97
2019-05-29T08:33:07.763Z,993.99
2019-05-29T08:34:07.765Z,993.99
2019-05-29T08:35:07.754Z,994.06
2019-05-29T08:36:07.757Z,994.03
2019-05-29T08:37:07.755Z,994.03
2019-05-29T08:38:07.751Z,994
2019-05-29T08:39:07.761Z,994.06
2019-05-29T08:40:07.758Z,994.07
2019-05-29T08:41:07.756Z,994.07
2019-05-29T08:42:22.320Z,994.05
2019-05-29T08:43:07.757Z,994.11
2019-05-29T08:44:07.759Z,994.14
2019-05-29T08:45:07.770Z,994.13
2019-05-29T08:46:07.763Z,994.1
2019-05-29T08:47:10.311Z,994.15
2019-05-29T08:48:07.758Z,994.13
2019-05-29T08:49:07.763Z,994.1
2019-05-29T08:50:17.834Z,994.09
2019-05-29T08:51:07.762Z,994.07
2019-05-29T08:52:11.531Z,994.13
2019-05-29T08:53:07.766Z,994.06
2019-05-29T08:54:22.838Z,994.1
2019-05-29T08:55:07.766Z,994.08
2019-05-29T08:56:07.766Z,994.14
2019-05-29T08:57:07.767Z,994.19
2019-05-29T08:58:07.778Z,994.18
2019-05-29T08:59:07.770Z,994.17
2019-05-29T09:00:07.769Z,994.15
2019-05-29T09:01:07.771Z,994.12
2019-05-29T09:02:07.778Z,994.16
2019-05-29T09:03:07.776Z,994.15
2019-05-29T09:04:07.775Z,994.16
2019-05-29T09:05:07.774Z,994.16
2019-05-29T09:06:09.193Z,994.11
2019-05-29T09:07:07.776Z,994.12
2019-05-29T09:08:07.788Z,994.15
2019-05-29T09:09:07.779Z,994.16
2019-05-29T09:10:07.777Z,994.24
2019-05-29T09:11:07.783Z,994.3
2019-05-29T09:12:07.782Z,994.27
2019-05-29T09:13:07.783Z,994.32
2019-05-29T09:14:07.783Z,994.33
2019-05-29T09:15:08.370Z,994.34
2019-05-29T09:16:07.788Z,994.38
2019-05-29T09:17:07.836Z,994.37
2019-05-29T09:18:07.789Z,994.32
2019-05-29T09:19:07.785Z,994.35
2019-05-29T09:20:23.407Z,994.34
2019-05-29T09:21:09.147Z,994.35
2019-05-29T09:22:09.149Z,994.3
2019-05-29T09:23:09.150Z,994.26
2019-05-29T09:24:09.177Z,994.28
2019-05-29T09:25:09.151Z,994.25
2019-05-29T09:26:14.720Z,994.23
2019-05-29T09:27:09.154Z,994.22
2019-05-29T09:28:09.153Z,994.23
2019-05-29T09:29:09.155Z,994.29
2019-05-29T09:30:09.159Z,994.33
2019-05-29T09:31:09.161Z,994.38
2019-05-29T09:32:09.159Z,994.31
2019-05-29T09:33:09.159Z,994.4
2019-05-29T09:34:09.168Z,994.34
2019-05-29T09:35:09.163Z,994.37
2019-05-29T09:36:09.174Z,994.4
2019-05-29T09:37:09.165Z,994.4
2019-05-29T09:38:09.162Z,994.39
2019-05-29T09:39:09.171Z,994.4
2019-05-29T09:40:09.167Z,994.43
2019-05-29T09:41:09.162Z,994.46
2019-05-29T09:42:09.176Z,994.56
2019-05-29T09:43:09.172Z,994.53
2019-05-29T09:44:09.163Z,994.57
2019-05-29T09:45:09.165Z,994.57
2019-05-29T09:46:09.179Z,994.57
2019-05-29T09:47:09.189Z,994.53
2019-05-29T09:48:09.222Z,994.55
2019-05-29T09:49:09.172Z,994.54
2019-05-29T09:50:09.171Z,994.49
2019-05-29T09:51:20.513Z,994.55
2019-05-29T09:52:09.171Z,994.56
2019-05-29T09:53:09.182Z,994.53
2019-05-29T09:54:09.220Z,994.5
2019-05-29T09:55:09.182Z,994.53
2019-05-29T09:56:09.235Z,994.62
2019-05-29T09:57:09.179Z,994.57
2019-05-29T09:58:09.178Z,994.53
2019-05-29T09:59:09.179Z,994.55
2019-05-29T10:00:09.189Z,994.57
2019-05-29T10:01:21.316Z,994.57
2019-05-29T10:02:09.525Z,994.52
2019-05-29T10:03:09.187Z,994.5
2019-05-29T10:04:09.187Z,994.51
2019-05-29T10:05:09.187Z,994.49
2019-05-29T10:06:09.639Z,994.5
2019-05-29T10:07:09.213Z,994.51
2019-05-29T10:08:09.191Z,994.54
2019-05-29T10:09:09.193Z,994.52
2019-05-29T10:10:09.196Z,994.56
2019-05-29T10:11:10.807Z,994.53
2019-05-29T10:12:09.211Z,994.53
2019-05-29T10:13:09.200Z,994.54
2019-05-29T10:14:09.196Z,994.58
2019-05-29T10:15:09.198Z,994.6
2019-05-29T10:16:09.199Z,994.58
2019-05-29T10:17:12.358Z,994.59
2019-05-29T10:18:28.203Z,994.59
2019-05-29T10:19:09.206Z,994.57
2019-05-29T10:20:09.219Z,994.61
2019-05-29T10:21:09.209Z,994.59
2019-05-29T10:22:09.235Z,994.6
2019-05-29T10:23:09.214Z,994.61
2019-05-29T10:24:09.230Z,994.58
2019-05-29T10:25:09.209Z,994.64
2019-05-29T10:26:09.216Z,994.63
2019-05-29T10:27:09.217Z,994.67
2019-05-29T10:28:09.214Z,994.63
2019-05-29T10:29:09.922Z,994.71
2019-05-29T10:30:09.215Z,994.73
2019-05-29T10:31:09.282Z,994.71
2019-05-29T10:32:09.217Z,994.74
2019-05-29T10:33:09.217Z,994.73
2019-05-29T10:34:09.231Z,994.78
2019-05-29T10:35:09.214Z,994.79
2019-05-29T10:36:09.217Z,994.78
2019-05-29T10:37:09.217Z,994.78
2019-05-29T10:38:09.216Z,994.74
2019-05-29T10:39:12.437Z,994.8
2019-05-29T10:40:09.221Z,994.72
2019-05-29T10:41:09.242Z,994.8
2019-05-29T10:42:09.217Z,994.81
2019-05-29T10:43:09.218Z,994.8
2019-05-29T10:44:12.552Z,994.82
2019-05-29T10:45:09.222Z,994.82
2019-05-29T10:46:09.219Z,994.8
2019-05-29T10:47:09.222Z,994.82
2019-05-29T10:48:09.495Z,994.76
2019-05-29T10:49:09.218Z,994.83
2019-05-29T10:50:09.226Z,994.84
2019-05-29T10:51:09.230Z,994.79
2019-05-29T10:52:15.217Z,994.85
2019-05-29T10:53:09.220Z,994.91
2019-05-29T10:54:09.234Z,994.85
2019-05-29T10:55:09.219Z,994.87
2019-05-29T10:56:09.247Z,994.89
2019-05-29T10:57:09.236Z,994.86
2019-05-29T10:58:09.226Z,994.87
2019-05-29T10:59:09.227Z,994.89
2019-05-29T11:00:09.221Z,994.9
2019-05-29T11:01:09.225Z,994.86
2019-05-29T11:02:09.234Z,994.86
2019-05-29T11:03:09.221Z,994.9
2019-05-29T11:04:09.223Z,994.87
2019-05-29T11:05:09.224Z,994.89
2019-05-29T11:06:09.224Z,994.9
2019-05-29T11:07:09.227Z,994.89
2019-05-29T11:08:09.225Z,994.9
2019-05-29T11:09:09.239Z,994.85
2019-05-29T11:10:11.167Z,994.9
2019-05-29T11:11:09.231Z,994.85
2019-05-29T11:12:09.230Z,994.82
2019-05-29T11:13:09.233Z,994.87
2019-05-29T11:14:09.233Z,994.84
2019-05-29T11:15:20.605Z,994.84
2019-05-29T11:16:09.234Z,994.82
2019-05-29T11:17:09.234Z,994.95
2019-05-29T11:18:09.240Z,994.86
2019-05-29T11:19:09.235Z,994.84
2019-05-29T11:20:09.252Z,994.89
2019-05-29T11:21:09.251Z,994.84
2019-05-29T11:22:25.032Z,994.79
2019-05-29T11:23:09.242Z,994.83
2019-05-29T11:24:09.250Z,994.79
2019-05-29T11:25:21.385Z,994.78
2019-05-29T11:26:09.245Z,994.78
2019-05-29T11:27:09.250Z,994.81
2019-05-29T11:28:09.247Z,994.84
2019-05-29T11:29:09.247Z,994.82
2019-05-29T11:30:09.251Z,994.87
2019-05-29T11:31:10.937Z,994.81
2019-05-29T11:32:09.254Z,994.86
2019-05-29T11:33:09.260Z,994.79
2019-05-29T11:34:09.255Z,994.81
2019-05-29T11:35:09.264Z,994.81
2019-05-29T11:36:13.104Z,994.79
2019-05-29T11:37:09.261Z,994.79
2019-05-29T11:38:09.263Z,994.78
2019-05-29T11:39:09.274Z,994.76
2019-05-29T11:40:09.262Z,994.77
2019-05-29T11:41:24.961Z,994.77
2019-05-29T11:42:09.265Z,994.85
2019-05-29T11:43:09.275Z,994.9
2019-05-29T11:44:09.271Z,994.83
2019-05-29T11:45:09.279Z,994.85
2019-05-29T11:46:09.270Z,994.84
2019-05-29T11:47:09.282Z,994.8
2019-05-29T11:48:09.276Z,994.81
2019-05-29T11:49:09.277Z,994.84
2019-05-29T11:50:17.915Z,994.79
2019-05-29T11:51:09.277Z,994.85
2019-05-29T11:52:23.164Z,994.81
2019-05-29T11:53:09.281Z,994.79
2019-05-29T11:54:09.292Z,994.8
2019-05-29T11:55:09.292Z,994.88
2019-05-29T11:56:09.287Z,994.84
2019-05-29T11:57:09.289Z,994.85
2019-05-29T11:58:09.296Z,994.92
2019-05-29T11:59:09.294Z,994.97
2019-05-29T12:00:18.871Z,994.87
2019-05-29T12:01:09.294Z,994.88
2019-05-29T12:02:09.384Z,994.93
2019-05-29T12:03:09.302Z,994.86
2019-05-29T12:04:23.972Z,994.91
2019-05-29T12:05:09.298Z,994.97
2019-05-29T12:06:09.298Z,994.92
2019-05-29T12:07:09.303Z,994.89
2019-05-29T12:08:09.307Z,994.9
2019-05-29T12:09:09.305Z,994.93
2019-05-29T12:10:09.485Z,994.93
2019-05-29T12:11:09.306Z,994.87
2019-05-29T12:12:09.338Z,994.89
2019-05-29T12:13:09.308Z,994.84
2019-05-29T12:14:09.317Z,994.89
2019-05-29T12:15:13.989Z,994.85
2019-05-29T12:16:09.312Z,994.81
2019-05-29T12:17:09.315Z,994.84
2019-05-29T12:18:22.487Z,994.8
2019-05-29T12:19:09.328Z,994.79
2019-05-29T12:20:26.293Z,994.73
2019-05-29T12:21:09.324Z,994.76
2019-05-29T12:22:09.329Z,994.72
2019-05-29T12:23:24.697Z,994.7
2019-05-29T12:24:09.331Z,994.72
2019-05-29T12:25:09.326Z,994.69
2019-05-29T12:26:21.372Z,994.68
2019-05-29T12:27:09.328Z,994.74
2019-05-29T12:28:09.334Z,994.75
2019-05-29T12:29:11.782Z,994.73
2019-05-29T12:30:09.338Z,994.74
2019-05-29T12:31:09.340Z,994.75
2019-05-29T12:32:11.454Z,994.73